Time;durP1;ratioP1;P1;durP2;ratioP2;P2;SDS_P1;SDS_P2;PMS_P1;PMS_P2;Temp;Humidity;BMP_temperature;BMP_pressure;BME280_temperature;BME280_humidity;BME280_pressure;Samples;Min_cycle;Max_cycle;Signal;HPM_P1;HPM_P2
2022/08/18 00:01:03;;;;;;;;;;;;;;;21.56;83.71;98717.79;1714136;83;20436;-70
2022/08/18 00:03:30;;;;;;;;;;;;;;;21.61;83.75;98719.18;1713340;82;20090;-70
2022/08/18 00:05:57;;;;;;;;;;;;;;;21.62;83.67;98722.14;1714188;83;20426;-72
2022/08/18 00:08:23;;;;;;;;;;;;;;;21.62;84.05;98718.62;1714238;83;20475;-71
2022/08/18 00:10:49;;;;;;;;;;;;;;;21.62;84.05;98719.44;1714245;83;21131;-70
2022/08/18 00:13:16;;;;;;;;;;;;;;;21.63;84.13;98725.14;1713729;82;20142;-71
2022/08/18 00:15:42;;;;;;;;;;;;;;;21.66;84.29;98721.92;1713183;82;20096;-70
2022/08/18 00:18:08;;;;;;;;;;;;;;;21.69;84.30;98723.30;1713925;82;20125;-70
2022/08/18 00:20:35;;;;;;;;;;;;;;;21.73;84.22;98714.91;1714161;83;20085;-69
2022/08/18 00:23:01;;;;;;;;;;;;;;;21.76;84.23;98722.52;1712742;82;21164;-70
2022/08/18 00:25:28;;;;;;;;;;;;;;;21.78;84.14;98717.12;1714122;82;20125;-71
2022/08/18 00:27:54;;;;;;;;;;;;;;;21.77;83.90;98720.89;1713458;83;20164;-68
2022/08/18 00:30:21;;;;;;;;;;;;;;;21.76;83.85;98717.93;1714269;83;20432;-69
2022/08/18 00:32:50;;;;;;;;;;;;;;;21.73;83.90;98725.21;1713307;83;20181;-68
2022/08/18 00:35:25;;;;;;;;;;;;;;;21.74;83.92;98726.86;1703478;83;21128;-68
2022/08/18 00:37:50;;;;;;;;;;;;;;;21.73;83.85;98725.74;1707297;82;20102;-68
2022/08/18 00:40:23;;;;;;;;;;;;;;;21.71;83.79;98724.66;1713864;82;20555;-69
2022/08/18 00:42:50;;;;;;;;;;;;;;;21.69;83.80;98725.44;1711836;83;20641;-71
2022/08/18 00:45:19;;;;;;;;;;;;;;;21.65;83.76;98718.92;1714105;82;20078;-72
2022/08/18 00:47:45;;;;;;;;;;;;;;;21.61;83.79;98728.66;1714815;82;20570;-71
2022/08/18 00:50:15;;;;;;;;;;;;;;;21.59;83.71;98727.28;1712880;83;20099;-71
2022/08/18 00:52:44;;;;;;;;;;;;;;;21.56;83.82;98725.91;1714371;82;20078;-70
2022/08/18 00:55:10;;;;;;;;;;;;;;;21.53;83.86;98723.16;1713306;82;20141;-70
2022/08/18 00:57:36;;;;;;;;;;;;;;;21.51;83.91;98721.78;1713959;83;20133;-70
2022/08/18 01:00:12;;;;;;;;;;;;;;;21.50;83.78;98725.58;1714362;83;21101;-70
2022/08/18 01:02:41;;;;;;;;;;;;;;;21.44;83.50;98717.95;1714198;83;20117;-68
2022/08/18 01:05:23;;;;;;;;;;;;;;;21.42;83.54;98723.34;1713392;83;20150;-69
2022/08/18 01:07:49;;;;;;;;;;;;;;;21.38;83.39;98720.33;1714249;83;20114;-70
2022/08/18 01:10:18;;;;;;;;;;;;;;;21.39;83.50;98715.74;1714266;83;20093;-71
2022/08/18 01:12:46;;;;;;;;;;;;;;;21.39;83.62;98711.69;1714335;83;21167;-70
2022/08/18 01:15:13;;;;;;;;;;;;;;;21.40;83.59;98711.98;1713005;82;20097;-71
2022/08/18 01:23:17;;;;;;;;;;;;;;;21.36;83.94;98716.25;1714463;83;20078;-70
2022/08/18 01:25:58;;;;;;;;;;;;;;;21.35;84.01;98717.34;1713255;82;22479;-70
2022/08/18 01:28:27;;;;;;;;;;;;;;;21.35;83.77;98725.46;1714327;82;20089;-70
2022/08/18 01:30:59;;;;;;;;;;;;;;;21.29;83.33;98720.54;1713945;83;20101;-72
2022/08/18 01:33:37;;;;;;;;;;;;;;;21.20;83.21;98719.36;1713643;83;20552;-72
2022/08/18 01:36:11;;;;;;;;;;;;;;;21.14;83.16;98719.59;1699223;83;20431;-71
2022/08/18 01:38:39;;;;;;;;;;;;;;;21.06;83.43;98722.72;1701682;82;21133;-69
2022/08/18 01:41:06;;;;;;;;;;;;;;;21.02;83.75;98722.41;1714478;83;20081;-69
2022/08/18 01:43:34;;;;;;;;;;;;;;;21.02;83.94;98726.98;1714471;83;20114;-69
2022/08/18 01:46:03;;;;;;;;;;;;;;;21.00;84.02;98734.02;1713232;83;20124;-70
2022/08/18 01:48:32;;;;;;;;;;;;;;;20.99;84.22;98738.34;1713872;83;20121;-69
2022/08/18 01:50:59;;;;;;;;;;;;;;;21.00;84.46;98746.19;1714325;83;21145;-70
2022/08/18 01:53:26;;;;;;;;;;;;;;;21.01;84.51;98732.95;1714309;83;20215;-69
2022/08/18 01:55:52;;;;;;;;;;;;;;;21.02;84.66;98735.10;1713312;83;20149;-72
2022/08/18 01:58:26;;;;;;;;;;;;;;;21.03;84.92;98736.75;1714306;83;20097;-71
2022/08/18 02:00:46;;;;;;;;;;;;;;;21.05;85.01;98737.30;1713378;83;20416;-72
2022/08/18 02:03:15;;;;;;;;;;;;;;;21.06;84.94;98736.23;1722979;83;21164;-70
2022/08/18 02:05:45;;;;;;;;;;;;;;;21.03;84.96;98736.75;1733133;81;20084;-70
2022/08/18 02:08:11;;;;;;;;;;;;;;;21.01;85.02;98730.25;1732698;81;20458;-70
2022/08/18 02:10:38;;;;;;;;;;;;;;;20.99;84.89;98727.53;1733444;81;20163;-70
2022/08/18 02:13:05;;;;;;;;;;;;;;;20.94;84.79;98726.39;1733703;83;20124;-70
2022/08/18 02:15:31;;;;;;;;;;;;;;;20.92;84.35;98723.13;1733597;81;21149;-70
2022/08/18 02:17:57;;;;;;;;;;;;;;;20.88;84.13;98730.09;1732488;81;20140;-69
2022/08/18 02:20:24;;;;;;;;;;;;;;;20.80;84.11;98731.94;1733712;81;20128;-70
2022/08/18 02:22:50;;;;;;;;;;;;;;;20.77;84.17;98726.20;1733616;81;20120;-69
2022/08/18 02:25:17;;;;;;;;;;;;;;;20.76;84.51;98726.73;1733215;81;20089;-69
2022/08/18 02:27:44;;;;;;;;;;;;;;;20.78;84.80;98735.92;1732493;81;22025;-69
2022/08/18 02:30:13;;;;;;;;;;;;;;;20.76;84.96;98734.84;1733339;83;20144;-70
2022/08/18 02:32:40;;;;;;;;;;;;;;;20.77;84.99;98742.42;1733637;81;20140;-69
2022/08/18 02:35:07;;;;;;;;;;;;;;;20.75;84.95;98743.22;1731778;81;20124;-68
2022/08/18 02:37:34;;;;;;;;;;;;;;;20.75;85.29;98749.97;1733617;83;20092;-69
2022/08/18 02:40:00;;;;;;;;;;;;;;;20.76;85.54;98756.99;1733604;81;21773;-69
2022/08/18 02:42:27;;;;;;;;;;;;;;;20.81;85.47;98752.47;1733534;83;20610;-68
2022/08/18 02:44:53;;;;;;;;;;;;;;;20.80;85.22;98757.61;1731953;81;20241;-69
2022/08/18 02:47:20;;;;;;;;;;;;;;;20.78;85.24;98763.78;1733683;81;20104;-70
2022/08/18 02:49:47;;;;;;;;;;;;;;;20.76;85.30;98767.28;1733696;81;20085;-68
2022/08/18 02:52:13;;;;;;;;;;;;;;;20.75;85.15;98764.84;1733749;81;21770;-67
2022/08/18 02:54:39;;;;;;;;;;;;;;;20.74;85.24;98764.02;1732438;81;20173;-68
2022/08/18 02:57:10;;;;;;;;;;;;;;;20.73;85.12;98766.42;1732390;81;20145;-70
2022/08/18 02:59:37;;;;;;;;;;;;;;;20.71;85.11;98760.47;1733242;81;20104;-69
2022/08/18 03:02:05;;;;;;;;;;;;;;;20.69;84.98;98765.84;1733595;81;20096;-68
2022/08/18 03:04:32;;;;;;;;;;;;;;;20.64;84.76;98768.48;1716951;83;21207;-71
2022/08/18 03:07:01;;;;;;;;;;;;;;;20.58;84.61;98765.42;1687445;83;20151;-69
2022/08/18 03:09:28;;;;;;;;;;;;;;;20.55;84.67;98769.98;1714412;83;20093;-70
2022/08/18 03:11:55;;;;;;;;;;;;;;;20.51;84.69;98769.68;1714217;83;20167;-70
2022/08/18 03:14:21;;;;;;;;;;;;;;;20.46;84.71;98777.72;1714224;82;20118;-71
2022/08/18 03:16:47;;;;;;;;;;;;;;;20.44;84.77;98781.19;1713189;83;21152;-70
2022/08/18 03:19:15;;;;;;;;;;;;;;;20.41;84.94;98783.06;1714256;82;20172;-71
2022/08/18 03:21:45;;;;;;;;;;;;;;;20.43;85.45;98787.67;1714221;83;20085;-71
2022/08/18 03:24:12;;;;;;;;;;;;;;;20.46;85.49;98785.00;1713545;83;20097;-71
2022/08/18 03:26:40;;;;;;;;;;;;;;;20.46;85.77;98785.83;1713950;82;20137;-70
2022/08/18 03:29:07;;;;;;;;;;;;;;;20.50;86.04;98781.55;1714424;83;21164;-70
2022/08/18 03:31:36;;;;;;;;;;;;;;;20.56;86.19;98784.61;1714224;83;20089;-69
2022/08/18 03:34:03;;;;;;;;;;;;;;;20.63;86.28;98784.40;1714534;83;20424;-69
2022/08/18 03:36:33;;;;;;;;;;;;;;;20.69;86.28;98779.35;1708982;82;20447;-70
2022/08/18 03:39:08;;;;;;;;;;;;;;;20.79;86.42;98785.70;1714306;83;20439;-70
2022/08/18 03:41:36;;;;;;;;;;;;;;;20.91;86.22;98784.19;1714210;83;21545;-70
2022/08/18 03:44:03;;;;;;;;;;;;;;;21.01;85.92;98789.73;1690679;83;20172;-70
2022/08/18 03:46:29;;;;;;;;;;;;;;;21.10;85.31;98789.58;1713673;82;20102;-71
2022/08/18 03:48:57;;;;;;;;;;;;;;;21.17;84.66;98792.89;1713955;82;20085;-70
2022/08/18 03:51:25;;;;;;;;;;;;;;;21.25;84.20;98792.44;1714155;82;20109;-73
2022/08/18 03:53:53;;;;;;;;;;;;;;;21.38;83.74;98795.27;1714182;83;22084;-70
2022/08/18 03:56:21;;;;;;;;;;;;;;;21.51;83.19;98795.66;1712183;83;20101;-72
2022/08/18 03:58:54;;;;;;;;;;;;;;;21.69;82.40;98798.52;1714147;82;20177;-70
2022/08/18 04:01:23;;;;;;;;;;;;;;;21.86;81.78;98808.72;1713875;83;20125;-70
2022/08/18 04:03:52;;;;;;;;;;;;;;;22.08;81.19;98805.35;1722459;81;20100;-69
2022/08/18 04:06:26;;;;;;;;;;;;;;;22.31;80.28;98803.34;1732863;81;22092;-69
2022/08/18 04:08:53;;;;;;;;;;;;;;;22.52;79.67;98806.45;1733027;81;20092;-71
2022/08/18 04:11:20;;;;;;;;;;;;;;;22.79;78.80;98803.06;1732837;83;20089;-71
2022/08/18 04:13:46;;;;;;;;;;;;;;;23.07;77.99;98813.46;1733534;81;20100;-71
2022/08/18 04:16:13;;;;;;;;;;;;;;;23.36;77.20;98808.38;1733623;81;20651;-73
2022/08/18 04:18:39;;;;;;;;;;;;;;;23.64;76.32;98802.49;1732925;81;21140;-72
2022/08/18 04:21:08;;;;;;;;;;;;;;;23.93;75.44;98804.91;1732569;81;20113;-72
2022/08/18 04:23:36;;;;;;;;;;;;;;;24.18;74.39;98804.11;1732688;81;20116;-72
2022/08/18 04:26:02;;;;;;;;;;;;;;;24.39;73.39;98805.70;1733608;81;20145;-72
2022/08/18 04:28:28;;;;;;;;;;;;;;;24.61;72.49;98802.66;1733632;81;20149;-72
2022/08/18 04:30:58;;;;;;;;;;;;;;;24.87;71.72;98793.88;1732409;81;21138;-71
2022/08/18 04:33:23;;;;;;;;;;;;;;;25.14;70.49;98790.19;1733304;83;20085;-70
2022/08/18 04:35:49;;;;;;;;;;;;;;;25.41;69.17;98783.77;1733451;81;20108;-69
2022/08/18 04:38:15;;;;;;;;;;;;;;;25.68;67.65;98783.33;1733628;81;20423;-72
2022/08/18 04:40:41;;;;;;;;;;;;;;;25.84;66.53;98781.30;1733604;83;20414;-74
2022/08/18 04:43:14;;;;;;;;;;;;;;;25.98;65.91;98774.87;1706549;81;21918;-71
2022/08/18 04:45:41;;;;;;;;;;;;;;;26.30;64.98;98775.69;1733582;81;20204;-71
2022/08/18 04:48:07;;;;;;;;;;;;;;;26.57;63.94;98780.00;1733122;81;20119;-73
2022/08/18 04:50:35;;;;;;;;;;;;;;;26.90;62.72;98784.55;1733388;81;20104;-73
2022/08/18 04:55:51;;;;;;;;;;;;;;;27.45;60.92;98785.68;1718219;83;21147;-73
2022/08/18 04:58:21;;;;;;;;;;;;;;;27.91;59.69;98784.95;1734322;81;20587;-71
2022/08/18 05:00:56;;;;;;;;;;;;;;;28.31;58.43;98784.27;1732145;81;20520;-71
2022/08/18 05:03:25;;;;;;;;;;;;;;;28.73;57.10;98781.25;1731443;81;20337;-71
2022/08/18 05:05:53;;;;;;;;;;;;;;;29.14;56.03;98783.95;1714528;83;20097;-72
2022/08/18 05:08:21;;;;;;;;;;;;;;;29.55;54.47;98783.85;1713435;83;21089;-70
2022/08/18 05:10:49;;;;;;;;;;;;;;;29.92;53.30;98785.44;1713001;82;20431;-71
2022/08/18 05:13:16;;;;;;;;;;;;;;;30.19;52.30;98783.10;1714170;83;20086;-71
2022/08/18 05:15:42;;;;;;;;;;;;;;;30.51;51.24;98781.41;1726626;82;20508;-70
2022/08/18 05:18:09;;;;;;;;;;;;;;;30.82;50.28;98775.85;1734030;82;20465;-68
2022/08/18 05:20:38;;;;;;;;;;;;;;;30.97;49.38;98779.02;1724854;82;22043;-69
2022/08/18 05:23:05;;;;;;;;;;;;;;;31.08;48.76;98779.49;1728154;82;20144;-68
2022/08/18 05:25:31;;;;;;;;;;;;;;;31.29;48.51;98780.49;1735209;82;20100;-70
2022/08/18 05:27:57;;;;;;;;;;;;;;;31.63;47.84;98779.72;1738957;82;20626;-69
2022/08/18 05:30:24;;;;;;;;;;;;;;;31.85;46.53;98778.73;1727982;82;20180;-73
2022/08/18 05:32:51;;;;;;;;;;;;;;;31.97;46.63;98775.55;1732106;82;21151;-73
2022/08/18 05:35:23;;;;;;;;;;;;;;;32.22;45.71;98775.28;1729397;82;20111;-72
2022/08/18 05:38:14;;;;;;;;;;;;;;;32.36;45.26;98775.30;1685561;85;20180;-71
2022/08/18 05:40:40;;;;;;;;;;;;;;;32.55;45.00;98770.80;1656518;86;20462;-70
2022/08/18 05:43:07;;;;;;;;;;;;;;;32.79;44.15;98766.88;1656591;86;20135;-71
2022/08/18 05:45:33;;;;;;;;;;;;;;;33.05;43.91;98759.86;1657317;86;21165;-72
2022/08/18 05:48:00;;;;;;;;;;;;;;;33.34;42.83;98762.56;1657222;86;20098;-73
2022/08/18 05:50:27;;;;;;;;;;;;;;;33.25;42.69;98761.00;1660541;85;20116;-72
2022/08/18 05:52:58;;;;;;;;;;;;;;;33.13;43.23;98767.27;1662538;86;20118;-70
2022/08/18 05:58:22;;;;;;;;;;;;;;;33.63;42.08;98764.46;1687009;83;21104;-70
2022/08/18 06:00:54;;;;;;;;;;;;;;;33.63;41.61;98763.65;1663116;85;20413;-71
2022/08/18 06:03:26;;;;;;;;;;;;;;;33.85;41.64;98759.94;1685366;84;20099;-71
2022/08/18 06:05:56;;;;;;;;;;;;;;;34.31;41.17;98759.39;1675772;84;20093;-72
2022/08/18 06:08:27;;;;;;;;;;;;;;;34.72;40.46;98761.39;1675757;84;20177;-70
2022/08/18 06:10:53;;;;;;;;;;;;;;;34.91;39.63;98760.00;1673882;84;20957;-71
2022/08/18 06:13:21;;;;;;;;;;;;;;;35.07;39.23;98764.48;1681601;83;20182;-72
2022/08/18 06:16:20;;;;;;;;;;;;;;;35.42;38.83;98761.17;1694317;83;20551;-72
2022/08/18 06:19:02;;;;;;;;;;;;;;;35.85;37.94;98767.59;1694519;83;20134;-73
2022/08/18 06:21:35;;;;;;;;;;;;;;;36.28;37.35;98768.19;1694180;83;20152;-72
2022/08/18 06:24:26;;;;;;;;;;;;;;;36.77;36.45;98760.33;1693913;83;21164;-72
2022/08/18 06:27:01;;;;;;;;;;;;;;;37.15;35.48;98755.50;1694458;83;20127;-72
2022/08/18 06:29:40;;;;;;;;;;;;;;;37.41;35.20;98749.35;1695624;83;20303;-74
2022/08/18 06:32:45;;;;;;;;;;;;;;;37.81;34.57;98754.50;1701936;83;20152;-70
2022/08/18 06:35:27;;;;;;;;;;;;;;;38.32;33.79;98755.92;1698718;83;20143;-72
2022/08/18 06:41:11;;;;;;;;;;;;;;;38.92;32.15;98759.70;1697435;83;20067;-73
2022/08/18 06:43:40;;;;;;;;;;;;;;;39.06;31.83;98762.67;1685291;83;20091;-71
2022/08/18 06:46:13;;;;;;;;;;;;;;;39.07;31.68;98762.09;1698096;83;20091;-71
2022/08/18 06:48:55;;;;;;;;;;;;;;;39.23;31.56;98766.92;1698314;83;20091;-73
2022/08/18 06:51:22;;;;;;;;;;;;;;;39.15;31.25;98759.04;1696000;83;21165;-74
2022/08/18 06:54:00;;;;;;;;;;;;;;;39.06;31.87;98765.45;1693845;83;20127;-73
2022/08/18 06:56:42;;;;;;;;;;;;;;;39.50;31.49;98766.48;1694981;83;20098;-72
2022/08/18 06:59:22;;;;;;;;;;;;;;;40.01;30.72;98764.52;1678284;83;20091;-73
2022/08/18 07:02:16;;;;;;;;;;;;;;;40.39;29.58;98775.27;1698085;82;20146;-72
2022/08/18 07:04:44;;;;;;;;;;;;;;;40.78;29.13;98774.22;1655061;84;21122;-74
2022/08/18 07:07:20;;;;;;;;;;;;;;;41.12;28.78;98772.89;1703374;83;20109;-73
2022/08/18 07:09:47;;;;;;;;;;;;;;;41.40;28.73;98776.48;1710886;82;20097;-73
2022/08/18 07:12:19;;;;;;;;;;;;;;;41.91;28.25;98776.29;1721054;82;20089;-74
2022/08/18 07:14:54;;;;;;;;;;;;;;;42.51;27.13;98777.80;1706267;83;20113;-70
2022/08/18 07:17:26;;;;;;;;;;;;;;;42.63;26.42;98776.03;1720763;82;21155;-74
2022/08/18 07:20:01;;;;;;;;;;;;;;;42.53;26.07;98777.45;1720211;83;20137;-70
2022/08/18 07:22:28;;;;;;;;;;;;;;;42.67;25.99;98771.25;1721064;82;20155;-72
2022/08/18 07:24:59;;;;;;;;;;;;;;;42.86;25.70;98780.63;1720400;83;20477;-72
2022/08/18 07:27:43;;;;;;;;;;;;;;;42.95;25.63;98777.44;1720537;82;20121;-73
2022/08/18 07:30:13;;;;;;;;;;;;;;;42.99;25.34;98776.25;1720074;83;21770;-72
2022/08/18 07:33:13;;;;;;;;;;;;;;;43.13;25.27;98776.02;1720914;82;20442;-72
2022/08/18 07:35:55;;;;;;;;;;;;;;;43.36;25.01;98778.56;1720376;82;20089;-74
2022/08/18 07:38:32;;;;;;;;;;;;;;;43.78;24.73;98774.81;1700892;81;20113;-71
2022/08/18 07:41:21;;;;;;;;;;;;;;;44.12;24.21;98776.45;1703176;83;20433;-71
2022/08/18 07:43:51;;;;;;;;;;;;;;;44.00;23.87;98774.09;1702266;83;21153;-72
2022/08/18 07:46:41;;;;;;;;;;;;;;;43.85;24.30;98775.39;1720372;82;20478;-71
2022/08/18 07:49:07;;;;;;;;;;;;;;;43.99;24.13;98777.50;1692128;83;20162;-71
2022/08/18 07:51:49;;;;;;;;;;;;;;;43.91;23.78;98779.38;1713824;82;20120;-71
2022/08/18 07:54:28;;;;;;;;;;;;;;;43.55;23.87;98776.70;1719235;82;20145;-70
2022/08/18 07:57:04;;;;;;;;;;;;;;;43.03;24.19;98772.03;1721134;82;21536;-70
2022/08/18 07:59:40;;;;;;;;;;;;;;;42.83;24.43;98773.64;1719967;82;20116;-71
2022/08/18 08:02:19;;;;;;;;;;;;;;;42.83;24.55;98776.43;1718743;82;20097;-73
2022/08/18 08:04:49;;;;;;;;;;;;;;;42.77;24.80;98778.83;1713806;82;20085;-74
2022/08/18 08:07:19;;;;;;;;;;;;;;;42.85;24.65;98779.02;1699386;83;20131;-71
2022/08/18 08:10:18;;;;;;;;;;;;;;;42.98;24.59;98769.05;1701761;83;21100;-71
2022/08/18 08:12:54;;;;;;;;;;;;;;;43.13;24.23;98767.00;1701700;83;20413;-72
2022/08/18 08:15:43;;;;;;;;;;;;;;;43.32;24.38;98769.39;1700673;83;20126;-71
2022/08/18 08:18:28;;;;;;;;;;;;;;;43.72;24.02;98772.27;1711709;83;20082;-70
2022/08/18 08:20:58;;;;;;;;;;;;;;;44.05;23.22;98772.27;1711521;82;20179;-70
2022/08/18 08:23:36;;;;;;;;;;;;;;;44.06;23.35;98773.87;1714565;83;21716;-72
2022/08/18 08:26:26;;;;;;;;;;;;;;;44.35;23.27;98769.70;1712313;82;20102;-70
2022/08/18 08:29:09;;;;;;;;;;;;;;;44.48;23.17;98773.58;1713110;82;20113;-70
2022/08/18 08:32:00;;;;;;;;;;;;;;;44.65;22.64;98773.28;1720116;82;20512;-71
2022/08/18 08:34:33;;;;;;;;;;;;;;;44.56;22.69;98776.55;1714706;82;20098;-74
2022/08/18 08:37:05;;;;;;;;;;;;;;;44.76;22.96;98777.59;1705752;83;21176;-71
2022/08/18 08:39:44;;;;;;;;;;;;;;;45.02;22.13;98784.58;1711040;82;20085;-71
2022/08/18 08:42:30;;;;;;;;;;;;;;;45.22;21.84;98784.76;1712338;82;20121;-71
2022/08/18 08:45:02;;;;;;;;;;;;;;;45.42;21.56;98784.38;1659350;85;20144;-72
2022/08/18 08:47:59;;;;;;;;;;;;;;;45.39;21.38;98788.80;1701819;82;20101;-73
2022/08/18 08:50:27;;;;;;;;;;;;;;;45.33;21.19;98794.70;1699399;83;21099;-72
2022/08/18 08:53:00;;;;;;;;;;;;;;;45.32;21.44;98786.67;1703485;83;20142;-73
2022/08/18 08:55:32;;;;;;;;;;;;;;;45.52;21.04;98783.45;1714207;83;20097;-71
2022/08/18 08:58:14;;;;;;;;;;;;;;;45.54;20.97;98782.41;1713780;82;20205;-72
2022/08/18 09:00:40;;;;;;;;;;;;;;;45.38;21.21;98786.42;1694185;83;20133;-72
2022/08/18 09:03:16;;;;;;;;;;;;;;;45.41;21.61;98774.95;1714565;83;21131;-73
2022/08/18 09:05:48;;;;;;;;;;;;;;;45.67;21.59;98785.49;1715038;83;20130;-72
2022/08/18 09:08:29;;;;;;;;;;;;;;;46.00;21.21;98784.66;1714915;83;20101;-73
2022/08/18 09:11:04;;;;;;;;;;;;;;;46.11;20.90;98784.51;1679129;83;20189;-74
2022/08/18 09:13:37;;;;;;;;;;;;;;;46.07;20.18;98784.58;1714263;83;20081;-72
2022/08/18 09:16:22;;;;;;;;;;;;;;;45.39;21.17;98785.22;1714468;82;21229;-73
2022/08/18 09:19:07;;;;;;;;;;;;;;;44.99;21.85;98784.01;1688461;83;20543;-73
2022/08/18 09:21:58;;;;;;;;;;;;;;;44.69;21.82;98781.84;1714434;82;20114;-73
2022/08/18 09:24:29;;;;;;;;;;;;;;;44.06;22.65;98783.08;1714381;83;20110;-74
2022/08/18 09:27:05;;;;;;;;;;;;;;;43.01;23.76;98788.42;1714552;83;20102;-73
2022/08/18 09:29:56;;;;;;;;;;;;;;;41.97;25.15;98792.88;1694723;83;40084;-73
2022/08/18 09:32:26;;;;;;;;;;;;;;;41.20;25.97;98798.25;1714190;83;20130;-74
2022/08/18 09:35:05;;;;;;;;;;;;;;;40.23;27.26;98801.79;1708563;83;20124;-73
2022/08/18 09:37:46;;;;;;;;;;;;;;;39.49;27.90;98796.09;1703278;83;20437;-74
2022/08/18 09:43:16;;;;;;;;;;;;;;;38.44;29.87;98796.01;1714468;83;21281;-74
2022/08/18 09:46:03;;;;;;;;;;;;;;;37.89;30.22;98795.13;1665365;83;20439;-72
2022/08/18 09:48:31;;;;;;;;;;;;;;;37.39;30.58;98799.59;1714233;82;20144;-73
2022/08/18 09:51:14;;;;;;;;;;;;;;;36.81;31.55;98801.41;1713703;83;20153;-75
2022/08/18 09:53:54;;;;;;;;;;;;;;;36.66;32.48;98805.58;1714378;83;20171;-73
2022/08/18 09:56:44;;;;;;;;;;;;;;;36.63;32.66;98802.14;1714412;83;21574;-74
2022/08/18 09:59:10;;;;;;;;;;;;;;;36.50;33.03;98808.35;1689497;83;20125;-73
2022/08/18 10:01:38;;;;;;;;;;;;;;;36.24;33.40;98805.26;1714265;82;20160;-72
2022/08/18 10:04:19;;;;;;;;;;;;;;;36.13;34.00;98804.97;1714421;83;20170;-74
2022/08/18 10:06:46;;;;;;;;;;;;;;;36.05;34.10;98803.17;1714263;83;20077;-73
2022/08/18 10:09:27;;;;;;;;;;;;;;;35.99;33.67;98801.77;1714423;83;21166;-74
2022/08/18 10:12:11;;;;;;;;;;;;;;;35.97;33.25;98797.17;1714345;83;20121;-73
2022/08/18 10:15:11;;;;;;;;;;;;;;;35.99;33.69;98800.39;1714101;82;20137;-75
2022/08/18 10:17:50;;;;;;;;;;;;;;;35.97;34.05;98806.86;1701213;82;20813;-73
2022/08/18 10:20:38;;;;;;;;;;;;;;;35.81;34.25;98798.52;1713833;83;20170;-76
2022/08/18 10:23:06;;;;;;;;;;;;;;;35.74;34.47;98796.13;1698621;83;21716;-73
2022/08/18 10:25:38;;;;;;;;;;;;;;;35.63;34.90;98801.93;1712546;82;20431;-72
2022/08/18 10:28:09;;;;;;;;;;;;;;;35.60;35.11;98799.29;1720043;82;20148;-72
2022/08/18 10:30:40;;;;;;;;;;;;;;;35.55;34.76;98795.96;1721874;81;20102;-73
2022/08/18 10:33:08;;;;;;;;;;;;;;;35.56;35.05;98797.58;1724386;82;20090;-71
2022/08/18 10:35:38;;;;;;;;;;;;;;;35.64;35.06;98800.78;1714331;82;21152;-72
2022/08/18 10:38:25;;;;;;;;;;;;;;;35.61;35.01;98805.63;1713159;83;20118;-74
2022/08/18 10:41:04;;;;;;;;;;;;;;;35.54;35.26;98802.06;1723022;82;20085;-73
2022/08/18 10:43:42;;;;;;;;;;;;;;;35.57;35.36;98810.23;1715004;82;20113;-70
2022/08/18 10:46:17;;;;;;;;;;;;;;;35.63;35.09;98809.66;1711451;82;20209;-72
2022/08/18 10:48:45;;;;;;;;;;;;;;;35.49;35.10;98811.15;1724016;82;21583;-70
2022/08/18 10:51:22;;;;;;;;;;;;;;;35.26;35.49;98810.86;1714715;82;20101;-72
2022/08/18 10:53:52;;;;;;;;;;;;;;;35.11;35.72;98813.78;1692590;83;20292;-71
2022/08/18 10:56:44;;;;;;;;;;;;;;;35.00;35.88;98816.74;1713050;82;20101;-73
2022/08/18 10:59:29;;;;;;;;;;;;;;;34.87;35.86;98818.47;1720300;82;20118;-73
2022/08/18 11:02:14;;;;;;;;;;;;;;;34.82;36.47;98814.55;1712894;82;21805;-72
2022/08/18 11:04:47;;;;;;;;;;;;;;;34.79;36.02;98820.77;1675732;85;20441;-73
2022/08/18 11:07:18;;;;;;;;;;;;;;;34.71;35.96;98822.49;1720286;81;20497;-72
2022/08/18 11:09:48;;;;;;;;;;;;;;;34.66;36.12;98822.72;1732283;83;20475;-74
2022/08/18 11:12:36;;;;;;;;;;;;;;;34.72;36.54;98831.83;1732131;83;20096;-71
2022/08/18 11:15:15;;;;;;;;;;;;;;;34.82;36.78;98823.66;1732216;83;21230;-74
2022/08/18 11:18:08;;;;;;;;;;;;;;;34.96;36.00;98820.55;1719494;81;20101;-73
2022/08/18 11:20:34;;;;;;;;;;;;;;;35.03;36.10;98831.25;1732373;83;20093;-74
2022/08/18 11:23:02;;;;;;;;;;;;;;;35.04;35.29;98832.06;1732410;82;20097;-72
2022/08/18 11:25:32;;;;;;;;;;;;;;;34.99;35.58;98833.68;1732276;83;20474;-75
2022/08/18 11:27:59;;;;;;;;;;;;;;;34.91;35.64;98825.71;1731366;83;21967;-74
2022/08/18 11:30:36;;;;;;;;;;;;;;;34.70;35.79;98829.19;1732311;83;20120;-74
2022/08/18 11:33:03;;;;;;;;;;;;;;;34.52;36.00;98829.13;1713309;83;20096;-74
2022/08/18 11:35:50;;;;;;;;;;;;;;;34.46;36.05;98830.50;1718845;81;20115;-75
2022/08/18 11:38:20;;;;;;;;;;;;;;;34.46;36.10;98823.59;1729812;83;20085;-75
2022/08/18 11:40:51;;;;;;;;;;;;;;;34.40;36.54;98820.81;1732336;83;21795;-74
2022/08/18 11:43:26;;;;;;;;;;;;;;;34.31;36.87;98822.88;1732268;83;20096;-71
2022/08/18 11:45:56;;;;;;;;;;;;;;;34.24;37.13;98822.61;1732374;82;20458;-72
2022/08/18 11:48:28;;;;;;;;;;;;;;;34.21;36.76;98816.42;1731066;81;20145;-72
2022/08/18 11:51:00;;;;;;;;;;;;;;;34.11;37.16;98814.88;1732492;82;20089;-72
2022/08/18 11:53:41;;;;;;;;;;;;;;;33.91;37.57;98817.08;1732379;83;20940;-71
2022/08/18 11:56:14;;;;;;;;;;;;;;;33.82;37.98;98813.58;1732351;83;20088;-73
2022/08/18 11:58:52;;;;;;;;;;;;;;;33.74;37.97;98819.41;1732239;82;20077;-73
2022/08/18 12:01:47;;;;;;;;;;;;;;;33.71;38.18;98824.25;1732348;83;20140;-72
2022/08/18 12:04:17;;;;;;;;;;;;;;;33.74;38.28;98820.80;1714489;83;20089;-71
2022/08/18 12:06:59;;;;;;;;;;;;;;;33.70;37.70;98822.63;1732969;81;21258;-74
2022/08/18 12:09:46;;;;;;;;;;;;;;;33.68;37.39;98818.03;1733517;81;20092;-72
2022/08/18 12:12:29;;;;;;;;;;;;;;;33.61;37.58;98823.25;1706894;83;20100;-72
2022/08/18 12:15:15;;;;;;;;;;;;;;;33.60;37.68;98826.36;1733453;83;20084;-75
2022/08/18 12:17:44;;;;;;;;;;;;;;;33.58;38.05;98819.00;1721190;81;20490;-72
2022/08/18 12:20:10;;;;;;;;;;;;;;;33.54;38.14;98816.88;1733629;81;21347;-73
2022/08/18 12:22:40;;;;;;;;;;;;;;;33.58;38.10;98809.36;1733653;83;20137;-73
2022/08/18 12:25:08;;;;;;;;;;;;;;;33.52;38.29;98817.80;1733833;83;20084;-73
2022/08/18 12:27:34;;;;;;;;;;;;;;;33.42;38.42;98813.26;1733579;81;20375;-74
2022/08/18 12:30:01;;;;;;;;;;;;;;;33.37;38.59;98815.62;1733666;83;20438;-72
2022/08/18 12:32:28;;;;;;;;;;;;;;;33.32;38.20;98808.15;1733508;81;21154;-74
2022/08/18 12:34:55;;;;;;;;;;;;;;;33.20;38.55;98813.00;1733547;81;20175;-74
2022/08/18 12:37:23;;;;;;;;;;;;;;;33.18;39.22;98806.20;1733749;83;20113;-73
2022/08/18 12:39:50;;;;;;;;;;;;;;;33.23;39.38;98817.03;1733665;81;20489;-72
2022/08/18 12:42:17;;;;;;;;;;;;;;;33.22;39.18;98812.65;1733582;81;20853;-72
2022/08/18 12:44:43;;;;;;;;;;;;;;;33.14;39.03;98808.03;1733595;81;21159;-73
2022/08/18 12:47:11;;;;;;;;;;;;;;;33.09;39.24;98812.33;1733509;81;20453;-72
2022/08/18 12:49:37;;;;;;;;;;;;;;;33.02;39.25;98812.02;1733533;81;20097;-72
2022/08/18 12:52:04;;;;;;;;;;;;;;;32.98;39.58;98815.44;1733688;81;20428;-75
2022/08/18 12:54:32;;;;;;;;;;;;;;;32.95;39.70;98809.81;1733667;81;20438;-72
2022/08/18 12:56:59;;;;;;;;;;;;;;;32.97;39.91;98818.54;1733768;81;21790;-72
2022/08/18 12:59:25;;;;;;;;;;;;;;;32.96;39.67;98811.41;1733727;83;20426;-73
2022/08/18 13:01:51;;;;;;;;;;;;;;;32.89;39.68;98812.51;1733761;81;20080;-72
2022/08/18 13:04:17;;;;;;;;;;;;;;;32.86;39.96;98805.72;1733628;81;20176;-73
2022/08/18 13:06:49;;;;;;;;;;;;;;;32.83;39.45;98809.70;1725926;81;20085;-72
2022/08/18 13:09:15;;;;;;;;;;;;;;;32.68;39.68;98808.32;1712065;82;21327;-70
2022/08/18 13:11:41;;;;;;;;;;;;;;;32.59;39.96;98808.12;1713475;83;20151;-69
2022/08/18 13:14:08;;;;;;;;;;;;;;;32.51;40.16;98801.48;1714395;82;20121;-70
2022/08/18 13:16:36;;;;;;;;;;;;;;;32.50;40.48;98806.75;1714450;83;20185;-70
2022/08/18 13:19:02;;;;;;;;;;;;;;;32.50;40.55;98804.55;1714329;82;20118;-70
2022/08/18 13:21:29;;;;;;;;;;;;;;;32.48;40.56;98801.33;1714008;83;21176;-69
2022/08/18 13:23:55;;;;;;;;;;;;;;;32.48;40.82;98806.27;1712899;83;20451;-71
2022/08/18 13:26:30;;;;;;;;;;;;;;;32.51;41.10;98804.81;1714196;82;20389;-71
2022/08/18 13:28:58;;;;;;;;;;;;;;;32.54;41.47;98802.21;1709133;82;20134;-71
2022/08/18 13:31:25;;;;;;;;;;;;;;;32.54;40.88;98806.94;1729258;82;20435;-71